createdAt,value
2019-01-15T00:00:03.056Z,0.4
2019-01-15T00:01:03.516Z,0.4
2019-01-15T00:02:03.477Z,0.4
2019-01-15T00:03:03.016Z,0.4
2019-01-15T00:04:03.563Z,0.4
2019-01-15T00:05:02.692Z,0.4
2019-01-15T00:06:02.761Z,0.4
2019-01-15T00:07:03.462Z,0.4
2019-01-15T00:08:02.852Z,0.4
2019-01-15T00:09:03.361Z,0.4
2019-01-15T00:10:02.773Z,0.4
2019-01-15T00:11:02.890Z,0.4
2019-01-15T00:12:08.211Z,0.4
2019-01-15T00:13:03.109Z,0.4
2019-01-15T00:14:03.644Z,0.5
2019-01-15T00:15:02.747Z,0.5
2019-01-15T00:16:03.663Z,0.4
2019-01-15T00:17:03.475Z,0.4
2019-01-15T00:18:02.888Z,0.5
2019-01-15T00:19:03.681Z,0.4
2019-01-15T00:20:03.444Z,0.5
2019-01-15T00:21:03.472Z,0.5
2019-01-15T00:22:03.645Z,0.5
2019-01-15T00:23:02.887Z,0.5
2019-01-15T00:24:02.929Z,0.5
2019-01-15T00:25:03.081Z,0.5
2019-01-15T00:26:03.616Z,0.5
2019-01-15T00:27:03.331Z,0.5
2019-01-15T00:28:03.150Z,0.5
2019-01-15T00:29:02.792Z,0.5
2019-01-15T00:30:03.064Z,0.5
2019-01-15T00:31:02.877Z,0.5
2019-01-15T00:32:02.912Z,0.5
2019-01-15T00:33:02.976Z,0.5
2019-01-15T00:34:03.266Z,0.5
2019-01-15T00:35:02.195Z,0.5
2019-01-15T00:36:02.751Z,0.4
2019-01-15T00:37:03.142Z,0.5
2019-01-15T00:38:02.627Z,0.5
2019-01-15T00:39:03.377Z,0.5
2019-01-15T00:40:03.477Z,0.5
2019-01-15T00:41:02.930Z,0.5
2019-01-15T00:42:03.015Z,0.5
2019-01-15T00:43:03.281Z,0.6
2019-01-15T00:44:03.140Z,0.5
2019-01-15T00:45:03.746Z,0.5
2019-01-15T00:46:03.047Z,0.5
2019-01-15T00:47:03.557Z,0.5
2019-01-15T00:48:03.126Z,0.5
2019-01-15T00:49:03.689Z,0.4
2019-01-15T00:50:02.855Z,0.4
2019-01-15T00:51:03.381Z,0.4
2019-01-15T00:52:02.978Z,0.4
2019-01-15T00:53:03.178Z,0.4
2019-01-15T00:54:03.056Z,0.4
2019-01-15T00:55:03.256Z,0.4
2019-01-15T00:56:03.638Z,0.4
2019-01-15T00:57:03.480Z,0.4
2019-01-15T00:58:03.029Z,0.4
2019-01-15T00:59:02.916Z,0.4
2019-01-15T01:00:03.361Z,0.5
2019-01-15T01:01:03.106Z,0.5
2019-01-15T01:02:03.037Z,0.5
2019-01-15T01:03:02.782Z,0.5
2019-01-15T01:04:03.125Z,0.5
2019-01-15T01:05:03.561Z,0.5
2019-01-15T01:06:02.649Z,0.4
2019-01-15T01:07:03.178Z,0.5
2019-01-15T01:08:03.560Z,0.5
2019-01-15T01:09:03.807Z,0.5
2019-01-15T01:10:03.019Z,0.4
2019-01-15T01:11:03.661Z,0.5
2019-01-15T01:12:03.128Z,0.5
2019-01-15T01:13:02.978Z,0.5
2019-01-15T01:14:02.983Z,0.6
2019-01-15T01:15:03.746Z,0.5
2019-01-15T01:16:03.552Z,0.5
2019-01-15T01:17:02.903Z,0.6
2019-01-15T01:18:02.559Z,0.5
2019-01-15T01:19:03.478Z,0.6
2019-01-15T01:20:02.799Z,0.6
2019-01-15T01:21:03.419Z,0.6
2019-01-15T01:22:03.201Z,0.5
2019-01-15T01:23:03.967Z,0.6
2019-01-15T01:24:03.707Z,0.6
2019-01-15T01:25:03.192Z,0.6
2019-01-15T01:26:02.833Z,0.6
2019-01-15T01:27:03.534Z,0.6
2019-01-15T01:28:03.358Z,0.6
2019-01-15T01:29:03.092Z,0.6
2019-01-15T01:30:02.732Z,0.6
2019-01-15T01:31:02.950Z,0.6
2019-01-15T01:32:03.385Z,0.6
2019-01-15T01:33:03.073Z,0.6
2019-01-15T01:34:03.599Z,0.6
2019-01-15T01:35:03.292Z,0.6
2019-01-15T01:36:03.526Z,0.6
2019-01-15T01:37:03.273Z,0.6
2019-01-15T01:38:03.471Z,0.6
2019-01-15T01:39:02.886Z,0.6
2019-01-15T01:40:03.312Z,0.6
2019-01-15T01:41:03.570Z,0.6
2019-01-15T01:42:03.121Z,0.6
2019-01-15T01:43:03.394Z,0.6
2019-01-15T01:44:02.704Z,0.6
2019-01-15T01:45:03.830Z,0.6
2019-01-15T01:46:03.537Z,0.6
2019-01-15T01:47:02.718Z,0.6
2019-01-15T01:48:03.367Z,0.6
2019-01-15T01:49:03.255Z,0.6
2019-01-15T01:50:03.471Z,0.6
2019-01-15T01:51:03.132Z,0.6
2019-01-15T01:52:03.129Z,0.7
2019-01-15T01:53:02.882Z,0.6
2019-01-15T01:54:03.295Z,0.6
2019-01-15T01:55:03.197Z,0.6
2019-01-15T01:56:03.645Z,0.6
2019-01-15T01:57:03.066Z,0.7
2019-01-15T01:58:03.468Z,0.8
2019-01-15T01:59:02.735Z,0.7
2019-01-15T02:00:03.230Z,0.7
2019-01-15T02:01:03.610Z,0.7
2019-01-15T02:02:03.433Z,0.7
2019-01-15T02:03:02.685Z,0.7
2019-01-15T02:04:03.780Z,0.7
2019-01-15T02:05:03.075Z,0.7
2019-01-15T02:06:03.221Z,0.7
2019-01-15T02:07:03.605Z,0.7
2019-01-15T02:08:02.675Z,0.7
2019-01-15T02:09:03.423Z,0.7
2019-01-15T02:10:03.203Z,0.7
2019-01-15T02:11:03.134Z,0.7
2019-01-15T02:12:03.304Z,0.6
2019-01-15T02:13:02.907Z,0.6
2019-01-15T02:14:03.036Z,0.7
2019-01-15T02:15:03.361Z,0.7
2019-01-15T02:16:02.755Z,0.7
2019-01-15T02:17:02.763Z,0.6
2019-01-15T02:18:03.233Z,0.6
2019-01-15T02:19:03.294Z,0.6
2019-01-15T02:20:02.974Z,0.6
2019-01-15T02:21:03.581Z,0.6
2019-01-15T02:22:03.409Z,0.6
2019-01-15T02:23:03.588Z,0.6
2019-01-15T02:24:03.305Z,0.6
2019-01-15T02:25:03.587Z,0.6
2019-01-15T02:26:03.069Z,0.6
2019-01-15T02:27:03.205Z,0.6
2019-01-15T02:28:02.982Z,0.6
2019-01-15T02:29:03.003Z,0.6
2019-01-15T02:30:02.883Z,0.6
2019-01-15T02:31:03.328Z,0.6
2019-01-15T02:32:03.250Z,0.6
2019-01-15T02:33:03.105Z,0.6
2019-01-15T02:34:02.884Z,0.6
2019-01-15T02:35:03.491Z,0.6
2019-01-15T02:36:02.989Z,0.6
2019-01-15T02:37:03.719Z,0.6
2019-01-15T02:38:03.161Z,0.6
2019-01-15T02:39:03.357Z,0.6
2019-01-15T02:40:03.346Z,0.6
2019-01-15T02:41:03.477Z,0.6
2019-01-15T02:42:03.641Z,0.6
2019-01-15T02:43:03.712Z,0.6
2019-01-15T02:44:03.224Z,0.6
2019-01-15T02:45:03.757Z,0.6
2019-01-15T02:46:03.535Z,0.6
2019-01-15T02:47:03.404Z,0.6
2019-01-15T02:48:03.037Z,0.6
2019-01-15T02:49:03.336Z,0.6
2019-01-15T02:50:02.972Z,0.6
2019-01-15T02:51:03.546Z,0.6
2019-01-15T02:52:03.147Z,0.6
2019-01-15T02:53:02.794Z,0.6
2019-01-15T02:54:03.352Z,0.6
2019-01-15T02:55:03.152Z,0.6
2019-01-15T02:56:03.162Z,0.6
2019-01-15T02:57:03.328Z,0.6
2019-01-15T02:58:02.715Z,0.6
2019-01-15T02:59:03.269Z,0.6
2019-01-15T03:00:03.781Z,0.6
2019-01-15T03:01:03.361Z,0.6
2019-01-15T03:02:03.151Z,0.6
2019-01-15T03:03:03.621Z,0.6
2019-01-15T03:04:02.868Z,0.6
2019-01-15T03:05:02.809Z,0.6
2019-01-15T03:06:02.727Z,0.6
2019-01-15T03:07:02.925Z,0.6
2019-01-15T03:08:03.663Z,0.6
2019-01-15T03:09:03.030Z,0.6
2019-01-15T03:10:02.734Z,0.6
2019-01-15T03:11:03.741Z,0.6
2019-01-15T03:12:02.731Z,0.6
2019-01-15T03:13:03.384Z,0.6
2019-01-15T03:14:03.805Z,0.6
2019-01-15T03:15:03.318Z,0.6
2019-01-15T03:16:02.916Z,0.6
2019-01-15T03:17:03.240Z,0.6
2019-01-15T03:18:03.631Z,0.6
2019-01-15T03:19:02.860Z,0.6
2019-01-15T03:20:03.714Z,0.6
2019-01-15T03:21:02.960Z,0.6
2019-01-15T03:22:03.404Z,0.6
2019-01-15T03:23:03.063Z,0.5
2019-01-15T03:24:03.619Z,0.6
2019-01-15T03:25:02.600Z,0.5
2019-01-15T03:26:03.185Z,0.6
2019-01-15T03:27:03.323Z,0.6
2019-01-15T03:28:03.242Z,0.6
2019-01-15T03:29:03.632Z,0.6
2019-01-15T03:30:03.657Z,0.6
2019-01-15T03:31:04.170Z,0.6
2019-01-15T03:32:03.556Z,0.6
2019-01-15T03:33:03.671Z,0.6
2019-01-15T03:34:02.898Z,0.6
2019-01-15T03:35:03.625Z,0.6
2019-01-15T03:36:03.242Z,0.6
2019-01-15T03:37:02.619Z,0.6
2019-01-15T03:38:03.002Z,0.5
2019-01-15T03:39:02.977Z,0.6
2019-01-15T03:40:03.376Z,0.6
2019-01-15T03:41:02.857Z,0.5
2019-01-15T03:42:03.342Z,0.5
2019-01-15T03:43:04.423Z,0.5
2019-01-15T03:44:02.874Z,0.6
2019-01-15T03:45:05.348Z,0.6
2019-01-15T03:46:04.785Z,0.6
2019-01-15T03:47:03.646Z,0.6
2019-01-15T03:48:03.351Z,0.6
2019-01-15T03:49:02.721Z,0.6
2019-01-15T03:50:03.274Z,0.6
2019-01-15T03:51:03.761Z,0.6
2019-01-15T03:52:03.148Z,0.6
2019-01-15T03:53:03.342Z,0.5
2019-01-15T03:54:03.580Z,0.6
2019-01-15T03:55:03.679Z,0.5
2019-01-15T03:56:02.910Z,0.6
2019-01-15T03:57:03.648Z,0.5
2019-01-15T03:58:02.763Z,0.5
2019-01-15T03:59:03.266Z,0.5
2019-01-15T04:00:02.995Z,0.5
2019-01-15T04:01:03.236Z,0.5
2019-01-15T04:02:03.034Z,0.5
2019-01-15T04:03:02.633Z,0.5
2019-01-15T04:04:02.992Z,0.5
2019-01-15T04:05:02.865Z,0.5
2019-01-15T04:06:03.258Z,0.5
2019-01-15T04:07:03.234Z,0.6
2019-01-15T04:08:03.580Z,0.6
2019-01-15T04:09:02.957Z,0.6
2019-01-15T04:10:03.211Z,0.6
2019-01-15T04:11:03.473Z,0.6
2019-01-15T04:12:03.677Z,0.6
2019-01-15T04:13:11.701Z,0.6
2019-01-15T04:14:02.993Z,0.6
2019-01-15T04:15:02.844Z,0.6
2019-01-15T04:16:03.203Z,0.6
2019-01-15T04:17:03.495Z,0.6
2019-01-15T04:18:03.074Z,0.6
2019-01-15T04:19:03.425Z,0.6
2019-01-15T04:20:03.784Z,0.6
2019-01-15T04:21:02.963Z,0.6
2019-01-15T04:22:02.920Z,0.6
2019-01-15T04:23:03.065Z,0.6
2019-01-15T04:24:03.015Z,0.6
2019-01-15T04:25:03.928Z,0.6
2019-01-15T04:26:02.660Z,0.6
2019-01-15T04:27:02.730Z,0.6
2019-01-15T04:28:03.550Z,0.6
2019-01-15T04:29:03.395Z,0.6
2019-01-15T04:30:02.753Z,0.6
2019-01-15T04:31:02.822Z,0.6
2019-01-15T04:32:03.244Z,0.6
2019-01-15T04:33:03.153Z,0.6
2019-01-15T04:34:03.073Z,0.5
2019-01-15T04:35:03.377Z,0.5
2019-01-15T04:36:03.120Z,0.6
2019-01-15T04:37:03.217Z,0.6
2019-01-15T04:38:03.556Z,0.6
2019-01-15T04:39:03.197Z,0.6
2019-01-15T04:40:03.354Z,0.6
2019-01-15T04:41:02.904Z,0.6
2019-01-15T04:42:03.504Z,0.6
2019-01-15T04:43:02.691Z,0.6
2019-01-15T04:44:03.463Z,0.6
2019-01-15T04:45:03.198Z,0.6
2019-01-15T04:46:03.382Z,0.6
2019-01-15T04:47:03.742Z,0.6
2019-01-15T04:48:03.521Z,0.6
2019-01-15T04:49:02.994Z,0.6
2019-01-15T04:50:03.668Z,0.6
2019-01-15T04:51:03.527Z,0.6
2019-01-15T04:52:02.928Z,0.6
2019-01-15T04:53:02.745Z,0.6
2019-01-15T04:54:03.300Z,0.6
2019-01-15T04:55:02.856Z,0.6
2019-01-15T04:56:03.457Z,0.6
2019-01-15T04:57:02.882Z,0.6
2019-01-15T04:58:03.447Z,0.6
2019-01-15T04:59:03.278Z,0.6
2019-01-15T05:00:02.623Z,0.6
2019-01-15T05:01:02.785Z,0.6
2019-01-15T05:02:03.706Z,0.6
2019-01-15T05:03:03.571Z,0.6
2019-01-15T05:04:03.043Z,0.6
2019-01-15T05:05:03.402Z,0.6
2019-01-15T05:06:03.106Z,0.6
2019-01-15T05:07:02.908Z,0.6
2019-01-15T05:08:02.988Z,0.6
2019-01-15T05:09:02.972Z,0.6
2019-01-15T05:10:03.092Z,0.6
2019-01-15T05:11:03.222Z,0.6
2019-01-15T05:12:03.531Z,0.6
2019-01-15T05:13:03.481Z,0.6
2019-01-15T05:14:03.070Z,0.6
2019-01-15T05:15:03.711Z,0.6
2019-01-15T05:16:03.341Z,0.6
2019-01-15T05:17:03.125Z,0.6
2019-01-15T05:18:02.948Z,0.5
2019-01-15T05:19:03.407Z,0.6
2019-01-15T05:20:02.950Z,0.5
2019-01-15T05:21:03.578Z,0.5
2019-01-15T05:22:02.907Z,0.5
2019-01-15T05:23:02.584Z,0.6
2019-01-15T05:24:03.585Z,0.6
2019-01-15T05:25:03.643Z,0.6
2019-01-15T05:26:03.266Z,0.6
2019-01-15T05:27:03.197Z,0.6
2019-01-15T05:28:03.082Z,0.6
2019-01-15T05:29:03.442Z,0.6
2019-01-15T05:30:02.980Z,0.6
2019-01-15T05:31:02.679Z,0.6
2019-01-15T05:32:02.861Z,0.6
2019-01-15T05:33:03.517Z,0.6
2019-01-15T05:34:03.497Z,0.6
2019-01-15T05:35:03.210Z,0.6
2019-01-15T05:36:03.563Z,0.6
2019-01-15T05:37:02.718Z,0.6
2019-01-15T05:38:03.174Z,0.6
2019-01-15T05:39:02.862Z,0.6
2019-01-15T05:40:03.710Z,0.6
2019-01-15T05:41:03.184Z,0.6
2019-01-15T05:42:03.038Z,0.6
2019-01-15T05:43:03.455Z,0.6
2019-01-15T05:44:03.550Z,0.6
2019-01-15T05:45:03.361Z,0.6
2019-01-15T05:46:03.381Z,0.6
2019-01-15T05:47:03.170Z,0.6
2019-01-15T05:48:02.969Z,0.6
2019-01-15T05:49:03.418Z,0.6
2019-01-15T05:50:02.872Z,0.6
2019-01-15T05:51:03.124Z,0.6
2019-01-15T05:52:03.013Z,0.6
2019-01-15T05:53:02.732Z,0.6
2019-01-15T05:54:03.110Z,0.6
2019-01-15T05:55:03.723Z,0.6
2019-01-15T05:56:03.506Z,0.6
2019-01-15T05:57:03.276Z,0.6
2019-01-15T05:58:02.848Z,0.5
2019-01-15T05:59:02.798Z,0.6
2019-01-15T06:00:03.363Z,0.6
2019-01-15T06:01:03.502Z,0.6
2019-01-15T06:02:03.022Z,0.6
2019-01-15T06:03:03.384Z,0.6
2019-01-15T06:04:03.337Z,0.6
2019-01-15T06:05:03.532Z,0.6
2019-01-15T06:06:03.028Z,0.6
2019-01-15T06:07:02.927Z,0.5
2019-01-15T06:08:03.366Z,0.6
2019-01-15T06:09:02.990Z,0.5
2019-01-15T06:10:03.159Z,0.5
2019-01-15T06:11:03.276Z,0.5
2019-01-15T06:12:03.562Z,0.5
2019-01-15T06:13:03.476Z,0.6
2019-01-15T06:14:02.873Z,0.6
2019-01-15T06:15:03.697Z,0.5
2019-01-15T06:16:02.781Z,0.5
2019-01-15T06:17:03.092Z,0.5
2019-01-15T06:18:03.007Z,0.5
2019-01-15T06:19:02.972Z,0.5
2019-01-15T06:20:03.282Z,0.5
2019-01-15T06:21:02.819Z,0.5
2019-01-15T06:22:03.385Z,0.4
2019-01-15T06:23:03.071Z,0.4
2019-01-15T06:24:03.591Z,0.5
2019-01-15T06:25:03.274Z,0.5
2019-01-15T06:26:03.201Z,0.5
2019-01-15T06:27:03.060Z,0.4
2019-01-15T06:28:02.849Z,0.5
2019-01-15T06:29:03.130Z,0.5
2019-01-15T06:30:03.607Z,0.6
2019-01-15T06:31:03.380Z,0.5
2019-01-15T06:32:03.228Z,0.5
2019-01-15T06:33:02.863Z,0.5
2019-01-15T06:34:02.673Z,0.4
2019-01-15T06:35:03.144Z,0.5
2019-01-15T06:36:03.034Z,0.4
2019-01-15T06:37:03.527Z,0.5
2019-01-15T06:38:03.141Z,0.5
2019-01-15T06:39:03.468Z,0.5
2019-01-15T06:40:03.742Z,0.5
2019-01-15T06:41:03.091Z,0.5
2019-01-15T06:42:03.127Z,0.6
2019-01-15T06:43:04.019Z,0.5
2019-01-15T06:44:02.896Z,0.5
2019-01-15T06:45:03.455Z,0.6
2019-01-15T06:46:02.934Z,0.6
2019-01-15T06:47:02.685Z,0.6
2019-01-15T06:48:02.931Z,0.6
2019-01-15T06:49:02.996Z,0.5
2019-01-15T06:50:03.401Z,0.6
2019-01-15T06:51:02.932Z,0.6
2019-01-15T06:52:03.031Z,0.6
2019-01-15T06:53:02.833Z,0.5
2019-01-15T06:54:02.872Z,0.6
2019-01-15T06:55:03.050Z,0.5
2019-01-15T06:56:03.295Z,0.5
2019-01-15T06:57:03.246Z,0.5
2019-01-15T06:58:03.348Z,0.6
2019-01-15T06:59:03.409Z,0.6
2019-01-15T07:00:03.009Z,0.6
2019-01-15T07:01:03.853Z,0.6
2019-01-15T07:02:02.828Z,0.6
2019-01-15T07:03:03.182Z,0.6
2019-01-15T07:04:03.209Z,0.6
2019-01-15T07:05:03.820Z,0.6
2019-01-15T07:06:03.599Z,0.6
2019-01-15T07:07:02.912Z,0.6
2019-01-15T07:08:03.725Z,0.6
2019-01-15T07:09:03.085Z,0.6
2019-01-15T07:10:02.960Z,0.6
2019-01-15T07:11:02.840Z,0.6
2019-01-15T07:12:03.548Z,0.6
2019-01-15T07:13:03.292Z,0.6
2019-01-15T07:14:02.809Z,0.6
2019-01-15T07:15:03.298Z,0.6
2019-01-15T07:16:02.868Z,0.6
2019-01-15T07:17:02.869Z,0.6
2019-01-15T07:18:02.692Z,0.6
2019-01-15T07:19:03.223Z,0.6
2019-01-15T07:20:03.601Z,0.6
2019-01-15T07:21:03.150Z,0.6
2019-01-15T07:22:03.373Z,0.6
2019-01-15T07:23:03.358Z,0.6
2019-01-15T07:24:02.863Z,0.6
2019-01-15T07:25:03.583Z,0.6
2019-01-15T07:26:03.298Z,0.6
2019-01-15T07:27:02.924Z,0.6
2019-01-15T07:28:02.895Z,0.6
2019-01-15T07:29:03.630Z,0.6
2019-01-15T07:30:03.564Z,0.6
2019-01-15T07:31:03.331Z,0.6
2019-01-15T07:32:02.887Z,0.6
2019-01-15T07:33:02.829Z,0.6
2019-01-15T07:34:02.933Z,0.6
2019-01-15T07:35:02.856Z,0.6
2019-01-15T07:36:03.003Z,0.6
2019-01-15T07:37:03.171Z,0.6
2019-01-15T07:38:03.231Z,0.6
2019-01-15T07:39:03.389Z,0.6
2019-01-15T07:40:03.593Z,0.6
2019-01-15T07:41:03.038Z,0.6
2019-01-15T07:42:03.089Z,0.6
2019-01-15T07:43:03.198Z,0.6
2019-01-15T07:44:04.696Z,0.6
2019-01-15T07:45:03.452Z,0.6
2019-01-15T07:46:03.185Z,0.7
2019-01-15T07:47:02.953Z,0.7
2019-01-15T07:48:03.645Z,0.7
2019-01-15T07:49:02.976Z,0.7
2019-01-15T07:50:03.793Z,0.7
2019-01-15T07:51:03.536Z,0.7
2019-01-15T07:52:03.548Z,0.7
2019-01-15T07:53:03.535Z,0.7
2019-01-15T07:54:03.030Z,0.7
2019-01-15T07:55:02.730Z,0.7
2019-01-15T07:56:02.722Z,0.7
2019-01-15T07:57:03.573Z,0.7
2019-01-15T07:58:03.362Z,0.7
2019-01-15T07:59:02.665Z,0.7
2019-01-15T08:00:03.149Z,0.8
2019-01-15T08:01:02.983Z,0.7
2019-01-15T08:02:03.152Z,0.8
2019-01-15T08:03:02.882Z,0.8
2019-01-15T08:04:03.559Z,0.8
2019-01-15T08:05:03.539Z,0.8
2019-01-15T08:06:03.188Z,0.8
2019-01-15T08:07:03.072Z,0.8
2019-01-15T08:08:02.620Z,0.8
2019-01-15T08:09:03.242Z,0.8
2019-01-15T08:10:02.752Z,0.8
2019-01-15T08:11:02.918Z,0.8
2019-01-15T08:12:03.310Z,0.9
2019-01-15T08:13:02.908Z,0.8
2019-01-15T08:14:03.137Z,0.9
2019-01-15T08:15:03.147Z,0.9
2019-01-15T08:16:03.194Z,0.9
2019-01-15T08:17:02.836Z,0.9
2019-01-15T08:18:03.689Z,0.9
2019-01-15T08:19:03.389Z,0.9
2019-01-15T08:20:03.228Z,0.9
2019-01-15T08:21:03.015Z,0.9
2019-01-15T08:22:02.229Z,0.9
2019-01-15T08:23:02.783Z,0.9
2019-01-15T08:24:02.650Z,0.9
2019-01-15T08:25:03.638Z,1
2019-01-15T08:26:03.590Z,1
2019-01-15T08:27:03.318Z,1
2019-01-15T08:28:02.921Z,1
2019-01-15T08:29:02.913Z,1
2019-01-15T08:30:02.876Z,1
2019-01-15T08:31:03.174Z,1.1
2019-01-15T08:32:03.232Z,1.1
2019-01-15T08:33:02.830Z,1
2019-01-15T08:34:03.492Z,1.1
2019-01-15T08:35:03.058Z,1.1
2019-01-15T08:36:02.782Z,1.1
2019-01-15T08:37:03.567Z,1.1
2019-01-15T08:38:03.016Z,1.1
2019-01-15T08:39:02.948Z,1.1
2019-01-15T08:40:03.276Z,1.1
2019-01-15T08:41:02.863Z,1.1
2019-01-15T08:42:03.417Z,1.1
2019-01-15T08:43:02.592Z,1.1
2019-01-15T08:44:02.809Z,1.2
2019-01-15T08:45:03.503Z,1.2
2019-01-15T08:46:02.837Z,1.2
2019-01-15T08:47:03.563Z,1.2
2019-01-15T08:48:03.057Z,1.2
2019-01-15T08:49:02.810Z,1.2
2019-01-15T08:50:03.713Z,1.2
2019-01-15T08:51:02.914Z,1.2
2019-01-15T08:52:02.980Z,1.3
2019-01-15T08:53:03.743Z,1.3
2019-01-15T08:54:03.092Z,1.2
2019-01-15T08:55:03.829Z,1.2
2019-01-15T08:56:02.751Z,1.3
2019-01-15T08:57:02.747Z,1.3
2019-01-15T08:58:02.707Z,1.3
2019-01-15T08:59:03.092Z,1.3
2019-01-15T09:00:03.513Z,1.3
2019-01-15T09:01:03.480Z,1.3
2019-01-15T09:02:03.371Z,1.3
2019-01-15T09:03:02.921Z,1.3
2019-01-15T09:04:02.861Z,1.3
2019-01-15T09:05:02.799Z,1.3
2019-01-15T09:06:03.469Z,1.3
2019-01-15T09:07:03.367Z,1.3
2019-01-15T09:08:03.150Z,1.3
2019-01-15T09:09:03.025Z,1.3
2019-01-15T09:10:03.457Z,1.4
2019-01-15T09:11:03.495Z,1.4
2019-01-15T09:12:03.283Z,1.4
2019-01-15T09:13:03.021Z,1.4
2019-01-15T09:14:02.978Z,1.4
2019-01-15T09:15:02.887Z,1.4
2019-01-15T09:16:02.810Z,1.4
2019-01-15T09:17:11.327Z,1.4
2019-01-15T09:18:03.679Z,1.4
2019-01-15T09:19:02.607Z,1.4
2019-01-15T09:20:02.703Z,1.4
2019-01-15T09:21:02.914Z,1.4
2019-01-15T09:22:03.695Z,1.4
2019-01-15T09:23:03.327Z,1.4
2019-01-15T09:24:02.683Z,1.5
2019-01-15T09:25:03.062Z,1.5
2019-01-15T09:26:02.957Z,1.5
2019-01-15T09:27:03.023Z,1.5
2019-01-15T09:28:03.782Z,1.6
2019-01-15T09:29:03.543Z,1.6
2019-01-15T09:30:03.379Z,1.6
2019-01-15T09:31:02.904Z,1.6
2019-01-15T09:32:03.707Z,1.6
2019-01-15T09:33:03.487Z,1.6
2019-01-15T09:34:03.338Z,1.6
2019-01-15T09:35:03.700Z,1.6
2019-01-15T09:36:03.449Z,1.7
2019-01-15T09:37:02.790Z,1.7
2019-01-15T09:38:02.961Z,1.8
2019-01-15T09:40:05.844Z,1.8
2019-01-15T09:41:50.043Z,1.8
2019-01-15T09:42:02.197Z,1.8
2019-01-15T09:42:03.027Z,1.9
2019-01-15T09:43:03.008Z,1.9
2019-01-15T09:44:03.703Z,1.9
2019-01-15T09:45:03.222Z,1.9
2019-01-15T09:46:04.026Z,2
2019-01-15T09:47:03.519Z,2
2019-01-15T09:48:03.744Z,2
2019-01-15T09:49:03.674Z,2
2019-01-15T09:50:03.094Z,2
2019-01-15T09:51:03.771Z,2
2019-01-15T09:52:03.070Z,2
2019-01-15T09:53:03.202Z,2
2019-01-15T09:54:02.949Z,2
2019-01-15T09:55:02.786Z,2.1
2019-01-15T09:56:02.785Z,2
2019-01-15T09:57:03.567Z,2
2019-01-15T09:58:03.189Z,2
2019-01-15T09:59:03.457Z,2.1
2019-01-15T10:00:03.532Z,2
2019-01-15T10:01:03.182Z,2
2019-01-15T10:02:03.439Z,2.1
2019-01-15T10:03:03.027Z,2
2019-01-15T10:04:03.299Z,2
2019-01-15T10:05:03.507Z,2.1
2019-01-15T10:06:03.097Z,2
2019-01-15T10:07:03.038Z,2.1
2019-01-15T10:08:03.418Z,2.1
2019-01-15T10:09:02.883Z,2.1
2019-01-15T10:10:03.711Z,2.1
2019-01-15T10:11:02.622Z,2.1
2019-01-15T10:12:03.440Z,2
2019-01-15T10:13:03.524Z,2.1
2019-01-15T10:14:02.678Z,2.1
2019-01-15T10:15:03.248Z,2.1
2019-01-15T10:16:02.927Z,2.1
2019-01-15T10:17:03.156Z,2.1
2019-01-15T10:18:03.150Z,2.1
2019-01-15T10:19:02.975Z,2.1
2019-01-15T10:20:02.917Z,2.1
2019-01-15T10:21:03.416Z,2.1
2019-01-15T10:22:02.635Z,2.1
2019-01-15T10:23:02.689Z,2.1
2019-01-15T10:24:03.587Z,2.1
2019-01-15T10:25:03.355Z,2.1
2019-01-15T10:26:03.674Z,2.1
2019-01-15T10:27:03.105Z,2.1
2019-01-15T10:28:03.684Z,2.1
2019-01-15T10:29:02.928Z,2.1
2019-01-15T10:30:04.060Z,2.1
2019-01-15T10:31:02.988Z,2.1
2019-01-15T10:32:02.781Z,2.1
2019-01-15T10:33:03.022Z,2.1
2019-01-15T10:34:03.317Z,2.1
2019-01-15T10:35:03.273Z,2
2019-01-15T10:36:02.761Z,2
2019-01-15T10:37:02.769Z,2
2019-01-15T10:38:02.653Z,2
2019-01-15T10:39:03.392Z,2
2019-01-15T10:40:03.601Z,2.1
2019-01-15T10:41:02.943Z,2.1
2019-01-15T10:42:02.570Z,2.1
2019-01-15T10:43:02.678Z,2.1
2019-01-15T10:44:03.593Z,2.1
2019-01-15T10:45:03.584Z,2.1
2019-01-15T10:46:02.661Z,2.1
2019-01-15T10:47:02.865Z,2.1
2019-01-15T10:48:03.820Z,2.1
2019-01-15T10:49:02.753Z,2.1
2019-01-15T10:50:03.394Z,2.1
2019-01-15T10:51:02.729Z,2.1
2019-01-15T10:52:03.687Z,2.2
2019-01-15T10:53:03.442Z,2.2
2019-01-15T10:54:03.243Z,2.1
2019-01-15T10:55:02.832Z,2.2
2019-01-15T10:56:03.218Z,2.2
2019-01-15T10:57:03.227Z,2.2
2019-01-15T10:58:03.459Z,2.2
2019-01-15T10:59:03.337Z,2.2
2019-01-15T11:00:03.591Z,2.2
2019-01-15T11:01:03.534Z,2.2
2019-01-15T11:02:03.536Z,2.2
2019-01-15T11:03:02.758Z,2.1
2019-01-15T11:04:02.876Z,2.1
2019-01-15T11:05:02.828Z,2.2
2019-01-15T11:06:03.163Z,2.2
2019-01-15T11:07:03.430Z,2.1
2019-01-15T11:08:03.462Z,2.1
2019-01-15T11:09:02.834Z,2.1
2019-01-15T11:10:03.035Z,2.1
2019-01-15T11:11:03.432Z,2.2
2019-01-15T11:12:03.627Z,2.2
2019-01-15T11:13:03.445Z,2.1
2019-01-15T11:14:03.058Z,2.2
2019-01-15T11:15:03.144Z,2.2
2019-01-15T11:16:03.146Z,2.2
2019-01-15T11:17:03.578Z,2.3
2019-01-15T11:18:02.815Z,2.3
2019-01-15T11:19:03.504Z,2.3
2019-01-15T11:20:02.781Z,2.3
2019-01-15T11:21:03.501Z,2.3
2019-01-15T11:22:03.623Z,2.3
2019-01-15T11:23:03.514Z,2.3
2019-01-15T11:24:03.104Z,2.3
2019-01-15T11:25:03.530Z,2.3
2019-01-15T11:26:03.090Z,2.3
2019-01-15T11:27:03.534Z,2.3
2019-01-15T11:28:02.897Z,2.3
2019-01-15T11:29:02.745Z,2.3
2019-01-15T11:30:02.991Z,2.3
2019-01-15T11:31:03.091Z,2.3
2019-01-15T11:32:03.294Z,2.3
2019-01-15T11:33:02.758Z,2.4
2019-01-15T11:34:02.623Z,2.4
2019-01-15T11:35:03.154Z,2.4
2019-01-15T11:36:03.101Z,2.4
2019-01-15T11:37:03.032Z,2.4
2019-01-15T11:38:03.356Z,2.4
2019-01-15T11:39:02.891Z,2.4
2019-01-15T11:40:03.225Z,2.4
2019-01-15T11:41:03.102Z,2.4
2019-01-15T11:42:03.198Z,2.4
2019-01-15T11:43:02.942Z,2.4
2019-01-15T11:44:02.911Z,2.4
2019-01-15T11:45:04.035Z,2.4
2019-01-15T11:46:02.764Z,2.4
2019-01-15T11:47:03.412Z,2.4
2019-01-15T11:48:02.705Z,2.4
2019-01-15T11:49:03.762Z,2.4
2019-01-15T11:50:03.481Z,2.4
2019-01-15T11:51:03.068Z,2.5
2019-01-15T11:52:02.798Z,2.6
2019-01-15T11:53:03.175Z,2.5
2019-01-15T11:54:03.047Z,2.6
2019-01-15T11:55:03.281Z,2.6
2019-01-15T11:56:03.425Z,2.6
2019-01-15T11:57:03.065Z,2.6
2019-01-15T11:58:03.048Z,2.6
2019-01-15T11:59:03.227Z,2.6
2019-01-15T12:00:03.358Z,2.6
2019-01-15T12:01:03.540Z,2.6
2019-01-15T12:02:03.484Z,2.6
2019-01-15T12:03:04.056Z,2.6
2019-01-15T12:04:02.881Z,2.6
2019-01-15T12:05:03.025Z,2.6
2019-01-15T12:06:03.555Z,2.6
2019-01-15T12:07:03.343Z,2.6
2019-01-15T12:08:03.629Z,2.6
2019-01-15T12:09:03.513Z,2.6
2019-01-15T12:10:03.247Z,2.6
2019-01-15T12:11:03.065Z,2.6
2019-01-15T12:12:03.031Z,2.6
2019-01-15T12:13:03.212Z,2.6
2019-01-15T12:14:02.565Z,2.7
2019-01-15T12:15:11.240Z,2.6
2019-01-15T12:16:02.976Z,2.7
2019-01-15T12:17:03.445Z,2.7
2019-01-15T12:18:03.248Z,2.7
2019-01-15T12:19:02.894Z,2.7
2019-01-15T12:20:02.751Z,2.8
2019-01-15T12:21:03.389Z,2.8
2019-01-15T12:22:02.871Z,2.8
2019-01-15T12:23:03.070Z,2.8
2019-01-15T12:24:03.049Z,2.8
2019-01-15T12:25:03.137Z,2.8
2019-01-15T12:26:02.930Z,2.8
2019-01-15T12:27:03.023Z,2.8
2019-01-15T12:28:03.217Z,2.8
2019-01-15T12:29:02.978Z,2.8
2019-01-15T12:30:03.718Z,2.9
2019-01-15T12:31:02.936Z,2.9
2019-01-15T12:32:03.307Z,2.9
2019-01-15T12:33:03.552Z,2.9
2019-01-15T12:34:02.914Z,2.9
2019-01-15T12:35:03.338Z,2.9
2019-01-15T12:36:03.379Z,2.9
2019-01-15T12:37:03.235Z,2.9
2019-01-15T12:38:03.098Z,2.9
2019-01-15T12:39:03.450Z,3
2019-01-15T12:40:02.933Z,3
2019-01-15T12:41:02.898Z,3
2019-01-15T12:42:03.691Z,3
2019-01-15T12:43:03.442Z,3
2019-01-15T12:44:02.940Z,3
2019-01-15T12:45:03.748Z,3
2019-01-15T12:46:02.807Z,3
2019-01-15T12:47:03.710Z,3
2019-01-15T12:48:03.143Z,3
2019-01-15T12:49:02.956Z,3
2019-01-15T12:50:03.354Z,3.1
2019-01-15T12:51:03.588Z,3.1
2019-01-15T12:52:02.724Z,3
2019-01-15T12:53:03.261Z,3.1
2019-01-15T12:54:03.102Z,3.1
2019-01-15T12:55:02.830Z,3.1
2019-01-15T12:56:03.211Z,3.1
2019-01-15T12:57:02.860Z,3.2
2019-01-15T12:58:03.417Z,3.2
2019-01-15T12:59:03.008Z,3.3
2019-01-15T13:00:03.323Z,3.2
2019-01-15T13:01:03.397Z,3.3
2019-01-15T13:02:03.239Z,3.3
2019-01-15T13:03:03.425Z,3.3
2019-01-15T13:04:02.934Z,3.4
2019-01-15T13:05:02.755Z,3.5
2019-01-15T13:06:02.689Z,3.7
2019-01-15T13:07:02.919Z,3.9
2019-01-15T13:08:03.084Z,4.1
2019-01-15T13:09:03.577Z,4.1
2019-01-15T13:10:03.072Z,4.1
2019-01-15T13:11:03.110Z,3.9
2019-01-15T13:12:03.047Z,3.9
2019-01-15T13:13:03.376Z,3.8
2019-01-15T13:14:03.222Z,3.8
2019-01-15T13:15:03.128Z,3.7
2019-01-15T13:16:03.303Z,3.7
2019-01-15T13:17:03.013Z,3.6
2019-01-15T13:18:03.553Z,3.7
2019-01-15T13:19:03.409Z,3.7
2019-01-15T13:20:03.588Z,3.6
2019-01-15T13:21:02.830Z,3.6
2019-01-15T13:22:03.684Z,3.6
2019-01-15T13:23:03.285Z,3.5
2019-01-15T13:24:03.081Z,3.5
2019-01-15T13:25:03.578Z,3.5
2019-01-15T13:26:02.910Z,3.5
2019-01-15T13:27:03.502Z,3.5
2019-01-15T13:28:03.488Z,3.6
2019-01-15T13:29:02.790Z,3.6
2019-01-15T13:30:03.681Z,3.6
2019-01-15T13:31:02.709Z,3.6
2019-01-15T13:32:03.575Z,3.6
2019-01-15T13:33:03.612Z,3.6
2019-01-15T13:34:02.840Z,3.6
2019-01-15T13:35:03.509Z,3.6
2019-01-15T13:36:03.287Z,3.6
2019-01-15T13:37:02.861Z,3.6
2019-01-15T13:38:02.883Z,3.6
2019-01-15T13:39:03.672Z,3.6
2019-01-15T13:40:02.963Z,3.6
2019-01-15T13:41:03.253Z,3.6
2019-01-15T13:42:03.200Z,3.6
2019-01-15T13:43:02.672Z,3.6
2019-01-15T13:44:03.266Z,3.6
2019-01-15T13:45:03.138Z,3.6
2019-01-15T13:46:02.834Z,3.6
2019-01-15T13:47:03.112Z,3.6
2019-01-15T13:48:03.518Z,3.6